createdAt,value
2023-05-02T00:00:08.481Z,1196.00
2023-05-02T00:01:08.490Z,1166.00
2023-05-02T00:02:08.528Z,1132.00
2023-05-02T00:03:08.540Z,1135.00
2023-05-02T00:04:08.613Z,1199.00
2023-05-02T00:05:08.508Z,1304.00
2023-05-02T00:06:08.581Z,1419.00
2023-05-02T00:07:08.559Z,1504.00
2023-05-02T00:08:08.604Z,1661.00
2023-05-02T00:09:08.635Z,1821.00
2023-05-02T00:10:08.658Z,1930.00
2023-05-02T00:11:08.682Z,1898.00
2023-05-02T00:12:08.725Z,1893.00
2023-05-02T00:13:08.753Z,1989.00
2023-05-02T00:14:08.796Z,2138.00
2023-05-02T00:15:08.795Z,2192.00
2023-05-02T00:16:08.830Z,2252.00
2023-05-02T00:17:08.853Z,2270.00
2023-05-02T00:18:08.912Z,2284.00
2023-05-02T00:19:08.896Z,2273.00
2023-05-02T00:20:09.054Z,2243.00
2023-05-02T00:21:08.975Z,2197.00
2023-05-02T00:22:08.996Z,2126.00
2023-05-02T00:23:09.048Z,2017.00
2023-05-02T00:24:09.097Z,1942.00
2023-05-02T00:25:09.137Z,1891.00
2023-05-02T00:26:09.174Z,1804.00
2023-05-02T00:27:09.244Z,1772.00
2023-05-02T00:28:09.270Z,1750.00
2023-05-02T00:29:09.329Z,1758.00
2023-05-02T00:30:09.361Z,1759.00
2023-05-02T00:31:09.437Z,1723.00
2023-05-02T00:32:09.430Z,1755.00
2023-05-02T00:33:09.522Z,1762.00
2023-05-02T00:34:09.516Z,1739.00
2023-05-02T00:35:09.530Z,1767.00
2023-05-02T00:36:09.565Z,1815.00
2023-05-02T00:37:09.588Z,1859.00
2023-05-02T00:38:09.625Z,1869.00
2023-05-02T00:39:09.695Z,1912.00
2023-05-02T00:40:09.702Z,1976.00
2023-05-02T00:41:09.721Z,2001.00
2023-05-02T00:42:09.763Z,2001.00
2023-05-02T00:43:09.814Z,1977.00
2023-05-02T00:44:09.869Z,1977.00
2023-05-02T00:45:09.882Z,1820.00
2023-05-02T00:46:09.960Z,1751.00
2023-05-02T00:47:09.975Z,1732.00
2023-05-02T00:48:10.040Z,1666.00
2023-05-02T00:49:10.068Z,1622.00
2023-05-02T00:50:10.083Z,1657.00
2023-05-02T00:51:10.148Z,1698.00
2023-05-02T00:52:10.176Z,1740.00
2023-05-02T00:53:10.204Z,1715.00
2023-05-02T00:54:10.258Z,1674.00
2023-05-02T00:55:10.281Z,1639.00
2023-05-02T00:56:10.294Z,1606.00
2023-05-02T00:57:10.340Z,1607.00
2023-05-02T00:58:10.376Z,1658.00
2023-05-02T00:59:10.433Z,1642.00
2023-05-02T01:00:10.438Z,1636.00
2023-05-02T01:01:10.526Z,1599.00
2023-05-02T01:02:10.603Z,1540.00
2023-05-02T01:03:10.585Z,1534.00
2023-05-02T01:04:10.747Z,1512.00
2023-05-02T01:05:10.620Z,1531.00
2023-05-02T01:06:10.648Z,1572.00
2023-05-02T01:07:10.696Z,1559.00
2023-05-02T01:08:10.740Z,1581.00
2023-05-02T01:09:10.792Z,1626.00
2023-05-02T01:10:10.813Z,1654.00
2023-05-02T01:11:10.870Z,1688.00
2023-05-02T01:12:10.908Z,1698.00
2023-05-02T01:13:10.959Z,1698.00
2023-05-02T01:14:11.016Z,1693.00
2023-05-02T01:15:11.066Z,1676.00
2023-05-02T01:16:11.135Z,1719.00
2023-05-02T01:17:11.159Z,1702.00
2023-05-02T01:18:11.212Z,1705.00
2023-05-02T01:19:11.221Z,1805.00
2023-05-02T01:20:11.260Z,1905.00
2023-05-02T01:21:11.343Z,1982.00
2023-05-02T01:22:11.358Z,1983.00
2023-05-02T01:23:11.428Z,1996.00
2023-05-02T01:24:11.445Z,2021.00
2023-05-02T01:25:11.517Z,2020.00
2023-05-02T01:26:11.565Z,1944.00
2023-05-02T01:27:11.601Z,1919.00
2023-05-02T01:28:11.637Z,1920.00
2023-05-02T01:29:11.686Z,1907.00
2023-05-02T01:30:11.770Z,1882.00
2023-05-02T01:31:11.841Z,1876.00
2023-05-02T01:32:11.841Z,1876.00
2023-05-02T01:33:11.954Z,1914.00
2023-05-02T01:34:11.984Z,1894.00
2023-05-02T01:35:12.001Z,1876.00
2023-05-02T01:36:12.083Z,1832.00
2023-05-02T01:37:12.101Z,1758.00
2023-05-02T01:38:12.153Z,1743.00
2023-05-02T01:39:12.184Z,1778.00
2023-05-02T01:40:12.249Z,1739.00
2023-05-02T01:41:12.321Z,1733.00
2023-05-02T01:42:12.353Z,1747.00
2023-05-02T01:43:12.417Z,1794.00
2023-05-02T01:44:12.464Z,1789.00
2023-05-02T01:45:12.517Z,1824.00
2023-05-02T01:46:12.624Z,1906.00
2023-05-02T01:47:12.686Z,1880.00
2023-05-02T01:48:12.667Z,1879.00
2023-05-02T01:49:12.706Z,1848.00
2023-05-02T01:50:12.753Z,1780.00
2023-05-02T01:51:12.813Z,1747.00
2023-05-02T01:52:12.832Z,1742.00
2023-05-02T01:53:12.898Z,1706.00
2023-05-02T01:54:12.934Z,1656.00
2023-05-02T01:55:12.996Z,1664.00
2023-05-02T01:56:13.062Z,1611.00
2023-05-02T01:57:13.090Z,1618.00
2023-05-02T01:58:13.170Z,1578.00
2023-05-02T01:59:13.174Z,1488.00
2023-05-02T02:00:13.249Z,1451.00
2023-05-02T02:01:13.397Z,1434.00
2023-05-02T02:02:13.347Z,1391.00
2023-05-02T02:03:13.427Z,1412.00
2023-05-02T02:04:13.506Z,1407.00
2023-05-02T02:05:13.506Z,1415.00
2023-05-02T02:06:13.568Z,1461.00
2023-05-02T02:07:13.575Z,1516.00
2023-05-02T02:08:13.661Z,1530.00
2023-05-02T02:09:13.711Z,1503.00
2023-05-02T02:10:13.749Z,1510.00
2023-05-02T02:11:13.832Z,1449.00
2023-05-02T02:12:13.850Z,1405.00
2023-05-02T02:13:13.892Z,1413.00
2023-05-02T02:14:13.944Z,1431.00
2023-05-02T02:15:13.992Z,1319.00
2023-05-02T02:16:14.136Z,1300.00
2023-05-02T02:17:14.079Z,1306.00
2023-05-02T02:18:14.173Z,1304.00
2023-05-02T02:19:14.180Z,1368.00
2023-05-02T02:20:14.222Z,1477.00
2023-05-02T02:21:14.325Z,1547.00
2023-05-02T02:22:14.342Z,1590.00
2023-05-02T02:23:14.401Z,1578.00
2023-05-02T02:24:14.490Z,1551.00
2023-05-02T02:25:14.520Z,1531.00
2023-05-02T02:26:14.592Z,1569.00
2023-05-02T02:27:14.612Z,1596.00
2023-05-02T02:28:14.672Z,1527.00
2023-05-02T02:29:14.733Z,1516.00
2023-05-02T02:30:14.792Z,1559.00
2023-05-02T02:31:14.872Z,1633.00
2023-05-02T02:32:14.872Z,1581.00
2023-05-02T02:33:15.000Z,1520.00
2023-05-02T02:34:15.027Z,1570.00
2023-05-02T02:35:15.091Z,1502.00
2023-05-02T02:36:15.154Z,1515.00
2023-05-02T02:37:15.191Z,1542.00
2023-05-02T02:38:15.253Z,1546.00
2023-05-02T02:39:15.330Z,1533.00
2023-05-02T02:40:15.341Z,1517.00
2023-05-02T02:41:15.429Z,1574.00
2023-05-02T02:42:15.471Z,1680.00
2023-05-02T02:43:15.519Z,1713.00
2023-05-02T02:44:15.540Z,1673.00
2023-05-02T02:45:15.584Z,1645.00
2023-05-02T02:46:15.715Z,1607.00
2023-05-02T02:47:15.682Z,1586.00
2023-05-02T02:48:16.656Z,1476.00
2023-05-02T02:49:15.856Z,1404.00
2023-05-02T02:50:15.833Z,1412.00
2023-05-02T02:51:15.960Z,1421.00
2023-05-02T02:52:15.903Z,1406.00
2023-05-02T02:53:15.938Z,1468.00
2023-05-02T02:54:25.803Z,1573.00
2023-05-02T02:55:16.976Z,1578.00
2023-05-02T02:56:15.968Z,1590.00
2023-05-02T02:57:15.944Z,1580.00
2023-05-02T02:58:15.947Z,1602.00
2023-05-02T02:59:15.966Z,1672.00
2023-05-02T03:00:15.944Z,1779.00
2023-05-02T03:01:16.016Z,1817.00
2023-05-02T03:02:15.922Z,1700.00
2023-05-02T03:03:15.983Z,1720.00
2023-05-02T03:04:15.956Z,1717.00
2023-05-02T03:05:15.896Z,1729.00
2023-05-02T03:06:15.971Z,1727.00
2023-05-02T03:07:15.897Z,1742.00
2023-05-02T03:08:15.871Z,1728.00
2023-05-02T03:09:15.939Z,1747.00
2023-05-02T03:10:15.852Z,1660.00
2023-05-02T03:11:15.925Z,1634.00
2023-05-02T03:12:15.949Z,1643.00
2023-05-02T03:13:16.020Z,1663.00
2023-05-02T03:14:16.083Z,1671.00
2023-05-02T03:15:16.138Z,1675.00
2023-05-02T03:16:16.242Z,1734.00
2023-05-02T03:17:16.204Z,1765.00
2023-05-02T03:18:16.332Z,1696.00
2023-05-02T03:19:16.344Z,1690.00
2023-05-02T03:20:16.371Z,1698.00
2023-05-02T03:21:16.420Z,1720.00
2023-05-02T03:22:16.470Z,1718.00
2023-05-02T03:23:16.518Z,1678.00
2023-05-02T03:24:18.892Z,1673.00
2023-05-02T03:25:16.551Z,1720.00
2023-05-02T03:26:16.543Z,1766.00
2023-05-02T03:27:16.543Z,1784.00
2023-05-02T03:28:16.554Z,1767.00
2023-05-02T03:29:16.569Z,1771.00
2023-05-02T03:30:16.577Z,1816.00
2023-05-02T03:31:16.544Z,1765.00
2023-05-02T03:32:16.514Z,1746.00
2023-05-02T03:33:16.652Z,1764.00
2023-05-02T03:34:16.515Z,1773.00
2023-05-02T03:35:16.486Z,1748.00
2023-05-02T03:36:16.496Z,1733.00
2023-05-02T03:37:16.480Z,1771.00
2023-05-02T03:38:16.465Z,1823.00
2023-05-02T03:39:16.525Z,1850.00
2023-05-02T03:40:16.504Z,1891.00
2023-05-02T03:41:16.455Z,1905.00
2023-05-02T03:42:16.432Z,1936.00
2023-05-02T03:43:16.429Z,1984.00
2023-05-02T03:44:16.454Z,2085.00
2023-05-02T03:45:16.440Z,2190.00
2023-05-02T03:46:16.444Z,2280.00
2023-05-02T03:47:16.403Z,2377.00
2023-05-02T03:48:16.414Z,2450.00
2023-05-02T03:49:16.416Z,2517.00
2023-05-02T03:50:16.387Z,2553.00
2023-05-02T03:51:16.364Z,2526.00
2023-05-02T03:52:16.395Z,2513.00
2023-05-02T03:53:16.372Z,2523.00
2023-05-02T03:54:16.372Z,2496.00
2023-05-02T03:55:16.355Z,2458.00
2023-05-02T03:56:16.353Z,2470.00
2023-05-02T03:57:16.349Z,2501.00
2023-05-02T03:58:16.337Z,2552.00
2023-05-02T03:59:16.353Z,2615.00
2023-05-02T04:00:16.329Z,2615.00
2023-05-02T04:01:16.314Z,2616.00
2023-05-02T04:02:16.341Z,2618.00
2023-05-02T04:03:16.320Z,2597.00
2023-05-02T04:04:16.596Z,2604.00
2023-05-02T04:05:16.296Z,2574.00
2023-05-02T04:06:16.292Z,2544.00
2023-05-02T04:07:16.295Z,2549.00
2023-05-02T04:08:16.289Z,2626.00
2023-05-02T04:09:16.258Z,2626.00
2023-05-02T04:10:16.365Z,2681.00
2023-05-02T04:11:16.284Z,2754.00
2023-05-02T04:12:16.263Z,2796.00
2023-05-02T04:13:16.237Z,2815.00
2023-05-02T04:14:16.263Z,2852.00
2023-05-02T04:15:16.245Z,2896.00
2023-05-02T04:16:16.257Z,2956.00
2023-05-02T04:17:16.398Z,2908.00
2023-05-02T04:18:16.291Z,2887.00
2023-05-02T04:19:16.238Z,2898.00
2023-05-02T04:20:16.207Z,2894.00
2023-05-02T04:21:16.223Z,3023.00
2023-05-02T04:22:16.274Z,3063.00
2023-05-02T04:23:16.290Z,3051.00
2023-05-02T04:24:16.371Z,2969.00
2023-05-02T04:25:16.365Z,2942.00
2023-05-02T04:26:16.422Z,2836.00
2023-05-02T04:27:16.452Z,2764.00
2023-05-02T04:28:16.482Z,2735.00
2023-05-02T04:29:16.559Z,2720.00
2023-05-02T04:30:16.547Z,2659.00
2023-05-02T04:31:16.563Z,2459.00
2023-05-02T04:32:16.585Z,2328.00
2023-05-02T04:33:16.669Z,2361.00
2023-05-02T04:34:16.686Z,2320.00
2023-05-02T04:35:16.708Z,2112.00
2023-05-02T04:36:16.739Z,1978.00
2023-05-02T04:37:16.780Z,1869.00
2023-05-02T04:38:16.801Z,1804.00
2023-05-02T04:39:16.844Z,1830.00
2023-05-02T04:40:16.866Z,1800.00
2023-05-02T04:41:16.914Z,1996.00
2023-05-02T04:42:16.972Z,2216.00
2023-05-02T04:43:17.000Z,2164.00
2023-05-02T04:44:17.038Z,2059.00
2023-05-02T04:45:17.083Z,1994.00
2023-05-02T04:46:17.147Z,2014.00
2023-05-02T04:47:17.132Z,2140.00
2023-05-02T04:48:17.167Z,2278.00
2023-05-02T04:49:17.231Z,2341.00
2023-05-02T04:50:17.236Z,2231.00
2023-05-02T04:51:17.316Z,2201.00
2023-05-02T04:52:17.276Z,2407.00
2023-05-02T04:53:17.304Z,2354.00
2023-05-02T04:54:17.354Z,2287.00
2023-05-02T04:55:17.382Z,2287.00
2023-05-02T04:56:17.418Z,2290.00
2023-05-02T04:57:17.448Z,2309.00
2023-05-02T04:58:17.488Z,2283.00
2023-05-02T04:59:17.499Z,2251.00
2023-05-02T05:00:17.544Z,2185.00
2023-05-02T05:01:17.607Z,2160.00
2023-05-02T05:02:17.748Z,2185.00
2023-05-02T05:03:17.731Z,2325.00
2023-05-02T05:04:17.696Z,2382.00
2023-05-02T05:05:17.721Z,2378.00
2023-05-02T05:06:17.668Z,2221.00
2023-05-02T05:07:17.717Z,2088.00
2023-05-02T05:08:17.752Z,2105.00
2023-05-02T05:09:17.788Z,2134.00
2023-05-02T05:10:17.793Z,2171.00
2023-05-02T05:11:17.809Z,2192.00
2023-05-02T05:12:17.841Z,2163.00
2023-05-02T05:13:17.866Z,2252.00
2023-05-02T05:14:17.884Z,2572.00
2023-05-02T05:15:17.902Z,2765.00
2023-05-02T05:16:17.961Z,2970.00
2023-05-02T05:17:17.922Z,3057.00
2023-05-02T05:18:17.908Z,3000.00
2023-05-02T05:19:17.902Z,2936.00
2023-05-02T05:20:17.960Z,3004.00
2023-05-02T05:21:17.954Z,3017.00
2023-05-02T05:22:17.997Z,3133.00
2023-05-02T05:23:17.980Z,3285.00
2023-05-02T05:24:17.997Z,3467.00
2023-05-02T05:25:18.070Z,3614.00
2023-05-02T05:26:18.080Z,3395.00
2023-05-02T05:27:18.114Z,3255.00
2023-05-02T05:28:18.156Z,3374.00
2023-05-02T05:29:18.164Z,3502.00
2023-05-02T05:30:18.183Z,3532.00
2023-05-02T05:31:18.217Z,3495.00
2023-05-02T05:32:18.260Z,3420.00
2023-05-02T05:33:18.328Z,3241.00
2023-05-02T05:34:18.297Z,3193.00
2023-05-02T05:35:18.200Z,3239.00
2023-05-02T05:36:18.201Z,3384.00
2023-05-02T05:37:18.234Z,3461.00
2023-05-02T05:38:18.483Z,3463.00
2023-05-02T05:39:18.282Z,3460.00
2023-05-02T05:40:18.240Z,3504.00
2023-05-02T05:41:18.326Z,3390.00
2023-05-02T05:42:18.283Z,3344.00
2023-05-02T05:43:18.266Z,3161.00
2023-05-02T05:44:18.289Z,2941.00
2023-05-02T05:45:18.360Z,2733.00
2023-05-02T05:46:18.319Z,2643.00
2023-05-02T05:47:18.498Z,2591.00
2023-05-02T05:48:18.486Z,2453.00
2023-05-02T05:49:18.551Z,2352.00
2023-05-02T05:50:18.678Z,2398.00
2023-05-02T05:51:18.591Z,2553.00
2023-05-02T05:52:18.769Z,2558.00
2023-05-02T05:53:18.608Z,2529.00
2023-05-02T05:54:18.650Z,2502.00
2023-05-02T05:55:18.601Z,2510.00
2023-05-02T05:56:18.638Z,2467.00
2023-05-02T05:57:18.660Z,2410.00
2023-05-02T05:58:18.647Z,2373.00
2023-05-02T05:59:18.697Z,2427.00
2023-05-02T06:00:18.772Z,2475.00
2023-05-02T06:01:18.776Z,2470.00
2023-05-02T06:02:18.883Z,2490.00
2023-05-02T06:03:18.904Z,2546.00
2023-05-02T06:04:18.922Z,2512.00
2023-05-02T06:05:18.965Z,2509.00
2023-05-02T06:06:18.986Z,2528.00
2023-05-02T06:07:19.038Z,2567.00
2023-05-02T06:08:19.060Z,2708.00
2023-05-02T06:09:19.112Z,2909.00
2023-05-02T06:10:19.131Z,3004.00
2023-05-02T06:11:19.152Z,3009.00
2023-05-02T06:12:19.218Z,2923.00
2023-05-02T06:13:19.201Z,2829.00
2023-05-02T06:14:19.253Z,2784.00
2023-05-02T06:15:19.284Z,2806.00
2023-05-02T06:16:19.325Z,2756.00
2023-05-02T06:17:19.679Z,2745.00
2023-05-02T06:18:19.414Z,2758.00
2023-05-02T06:19:19.445Z,2763.00
2023-05-02T06:20:19.507Z,2787.00
2023-05-02T06:21:19.500Z,2845.00
2023-05-02T06:22:19.571Z,2917.00
2023-05-02T06:23:19.571Z,3035.00
2023-05-02T06:24:19.610Z,3051.00
2023-05-02T06:25:19.616Z,3055.00
2023-05-02T06:26:19.617Z,3060.00
2023-05-02T06:27:19.668Z,3020.00
2023-05-02T06:28:19.678Z,3062.00
2023-05-02T06:29:19.676Z,3055.00
2023-05-02T06:30:19.712Z,3032.00
2023-05-02T06:31:19.784Z,3011.00
2023-05-02T06:32:20.218Z,2929.00
2023-05-02T06:33:19.777Z,2924.00
2023-05-02T06:34:19.810Z,2932.00
2023-05-02T06:35:20.151Z,2829.00
2023-05-02T06:36:19.844Z,2708.00
2023-05-02T06:37:19.861Z,2720.00
2023-05-02T06:38:19.892Z,2812.00
2023-05-02T06:39:19.886Z,2888.00
2023-05-02T06:40:20.172Z,2883.00
2023-05-02T06:41:19.919Z,2858.00
2023-05-02T06:42:19.948Z,2804.00
2023-05-02T06:43:19.985Z,2836.00
2023-05-02T06:44:19.979Z,2928.00
2023-05-02T06:45:19.975Z,2942.00
2023-05-02T06:46:20.030Z,3009.00
2023-05-02T06:47:20.036Z,3087.00
2023-05-02T06:48:20.258Z,2905.00
2023-05-02T06:49:20.040Z,2745.00
2023-05-02T06:50:20.049Z,2668.00
2023-05-02T06:51:20.052Z,2706.00
2023-05-02T06:52:20.122Z,2610.00
2023-05-02T06:53:20.089Z,2514.00
2023-05-02T06:54:20.109Z,2499.00
2023-05-02T06:55:20.178Z,2485.00
2023-05-02T06:56:20.132Z,2521.00
2023-05-02T06:57:20.130Z,2561.00
2023-05-02T06:58:20.131Z,2636.00
2023-05-02T06:59:20.170Z,2606.00
2023-05-02T07:00:20.166Z,2602.00
2023-05-02T07:01:20.170Z,2653.00
2023-05-02T07:02:20.150Z,2702.00
2023-05-02T07:03:20.166Z,2765.00
2023-05-02T07:04:20.247Z,2828.00
2023-05-02T07:05:20.170Z,2852.00
2023-05-02T07:06:20.202Z,2864.00
2023-05-02T07:07:20.167Z,2725.00
2023-05-02T07:08:20.187Z,2590.00
2023-05-02T07:09:20.168Z,2566.00
2023-05-02T07:10:20.189Z,2630.00
2023-05-02T07:11:20.195Z,2721.00
2023-05-02T07:12:20.203Z,2760.00
2023-05-02T07:13:20.232Z,2774.00
2023-05-02T07:14:20.222Z,2626.00
2023-05-02T07:15:20.266Z,2481.00
2023-05-02T07:16:20.643Z,2472.00
2023-05-02T07:17:20.371Z,2461.00
2023-05-02T07:18:20.325Z,2284.00
2023-05-02T07:19:20.341Z,2007.00
2023-05-02T07:20:20.299Z,1919.00
2023-05-02T07:21:20.335Z,2009.00
2023-05-02T07:22:20.287Z,1988.00
2023-05-02T07:23:20.665Z,1989.00
2023-05-02T07:24:20.365Z,2030.00
2023-05-02T07:25:20.672Z,2170.00
2023-05-02T07:26:20.328Z,2326.00
2023-05-02T07:27:20.337Z,2406.00
2023-05-02T07:28:20.666Z,2401.00
2023-05-02T07:29:20.367Z,2482.00
2023-05-02T07:30:20.713Z,2562.00
2023-05-02T07:31:20.426Z,2599.00
2023-05-02T07:32:20.608Z,2339.00
2023-05-02T07:33:20.601Z,2218.00
2023-05-02T07:34:20.567Z,2193.00
2023-05-02T07:35:20.616Z,2183.00
2023-05-02T07:36:20.653Z,2197.00
2023-05-02T07:37:20.700Z,2258.00
2023-05-02T07:38:20.767Z,2293.00
2023-05-02T07:39:20.836Z,2347.00
2023-05-02T07:40:20.921Z,2435.00
2023-05-02T07:41:20.956Z,2499.00
2023-05-02T07:42:21.000Z,2521.00
2023-05-02T07:43:21.009Z,2501.00
2023-05-02T07:44:21.066Z,2514.00
2023-05-02T07:45:21.073Z,2451.00
2023-05-02T07:46:21.142Z,2387.00
2023-05-02T07:47:21.114Z,2459.00
2023-05-02T07:48:21.219Z,2631.00
2023-05-02T07:49:21.212Z,2779.00
2023-05-02T07:50:21.243Z,2863.00
2023-05-02T07:51:21.279Z,2734.00
2023-05-02T07:52:21.320Z,2689.00
2023-05-02T07:53:21.352Z,2713.00
2023-05-02T07:54:21.388Z,2722.00
2023-05-02T07:55:21.464Z,2703.00
2023-05-02T07:56:21.471Z,2649.00
2023-05-02T07:57:21.486Z,2559.00
2023-05-02T07:58:21.709Z,2473.00
2023-05-02T07:59:21.596Z,2452.00
2023-05-02T08:00:21.638Z,2567.00
2023-05-02T08:01:21.655Z,2709.00
2023-05-02T08:02:21.916Z,2784.00
2023-05-02T08:03:22.340Z,2847.00
2023-05-02T08:04:21.854Z,2837.00
2023-05-02T08:05:21.788Z,2851.00
2023-05-02T08:06:21.881Z,2776.00
2023-05-02T08:07:21.832Z,2751.00
2023-05-02T08:08:21.881Z,2787.00
2023-05-02T08:09:21.849Z,2801.00
2023-05-02T08:10:22.209Z,2716.00
2023-05-02T08:11:22.586Z,2543.00
2023-05-02T08:12:21.917Z,2399.00
2023-05-02T08:13:21.923Z,2327.00
2023-05-02T08:14:21.915Z,2296.00
2023-05-02T08:15:21.923Z,2334.00
2023-05-02T08:16:21.990Z,2339.00
2023-05-02T08:17:22.029Z,2221.00
2023-05-02T08:18:23.686Z,2141.00
2023-05-02T08:19:22.143Z,2219.00
2023-05-02T08:20:22.082Z,2454.00
2023-05-02T08:21:21.993Z,2659.00
2023-05-02T08:22:22.013Z,2490.00
2023-05-02T08:23:22.065Z,2420.00
2023-05-02T08:24:22.047Z,2318.00
2023-05-02T08:25:22.068Z,2361.00
2023-05-02T08:26:22.083Z,2155.00
2023-05-02T08:27:22.249Z,1779.00
2023-05-02T08:28:22.094Z,1660.00
2023-05-02T08:29:22.113Z,1737.00
2023-05-02T08:30:22.146Z,1946.00
2023-05-02T08:31:22.184Z,2044.00
2023-05-02T08:32:22.163Z,2088.00
2023-05-02T08:33:22.285Z,2139.00
2023-05-02T08:34:22.167Z,2108.00
2023-05-02T08:35:22.180Z,2178.00
2023-05-02T08:36:22.198Z,2259.00
2023-05-02T08:37:22.202Z,2185.00
2023-05-02T08:38:22.713Z,2105.00
2023-05-02T08:39:22.297Z,2047.00
2023-05-02T08:40:33.941Z,1875.00
2023-05-02T08:41:23.269Z,1787.00
2023-05-02T08:42:22.251Z,1607.00
2023-05-02T08:43:22.268Z,1533.00
2023-05-02T08:44:22.237Z,1430.00
2023-05-02T08:45:22.244Z,1407.00
2023-05-02T08:46:22.256Z,1293.00
2023-05-02T08:47:22.345Z,1234.00
2023-05-02T08:48:22.694Z,1118.00
2023-05-02T08:49:22.194Z,1068.00
2023-05-02T08:50:22.255Z,1056.00
2023-05-02T08:51:22.201Z,1057.00
2023-05-02T08:52:22.208Z,1126.00
2023-05-02T08:53:22.185Z,1081.00
2023-05-02T08:54:22.166Z,994.00
2023-05-02T08:55:22.172Z,946.00
2023-05-02T08:56:22.167Z,888.00
2023-05-02T08:57:22.173Z,626.00
2023-05-02T08:58:22.167Z,600.00
2023-05-02T08:59:22.216Z,617.00
2023-05-02T09:00:22.330Z,550.00
2023-05-02T09:01:22.473Z,484.00
2023-05-02T09:02:22.427Z,536.00
2023-05-02T09:03:23.764Z,723.00
2023-05-02T09:04:22.513Z,887.00
2023-05-02T09:05:22.497Z,799.00
2023-05-02T09:06:22.617Z,802.00
2023-05-02T09:07:22.641Z,916.00
2023-05-02T09:08:22.686Z,648.00
2023-05-02T09:09:22.749Z,648.00
2023-05-02T09:10:22.819Z,762.00
2023-05-02T09:11:22.905Z,708.00
2023-05-02T09:12:22.927Z,725.00
2023-05-02T09:13:22.960Z,821.00
2023-05-02T09:14:23.014Z,767.00
2023-05-02T09:15:23.045Z,779.00
2023-05-02T09:16:23.412Z,838.00
2023-05-02T09:17:23.165Z,890.00
2023-05-02T09:18:23.248Z,980.00
2023-05-02T09:19:23.227Z,1042.00
2023-05-02T09:20:23.257Z,1015.00
2023-05-02T09:21:23.260Z,965.00
2023-05-02T09:22:23.293Z,865.00
2023-05-02T09:23:23.717Z,842.00
2023-05-02T09:24:23.310Z,1084.00
2023-05-02T09:25:23.266Z,925.00
2023-05-02T09:26:23.325Z,733.00
2023-05-02T09:27:23.337Z,673.00
2023-05-02T09:28:23.756Z,646.00
2023-05-02T09:29:23.341Z,509.00
2023-05-02T09:30:23.752Z,500.00
2023-05-02T09:31:43.564Z,540.00
2023-05-02T09:32:24.428Z,543.00
2023-05-02T09:33:23.708Z,551.00
2023-05-02T09:34:23.348Z,536.00
2023-05-02T09:35:23.376Z,541.00
2023-05-02T09:36:23.365Z,519.00
2023-05-02T09:37:23.341Z,537.00
2023-05-02T09:38:23.377Z,560.00
2023-05-02T09:39:25.573Z,514.00
2023-05-02T09:40:23.344Z,522.00
2023-05-02T09:41:23.457Z,516.00
2023-05-02T09:42:23.324Z,508.00
2023-05-02T09:43:23.300Z,521.00
2023-05-02T09:44:23.290Z,549.00
2023-05-02T09:45:23.298Z,571.00
2023-05-02T09:46:23.365Z,500.00
2023-05-02T09:47:23.286Z,500.00
2023-05-02T09:48:23.262Z,528.00
2023-05-02T09:49:24.387Z,514.00
2023-05-02T09:50:24.214Z,500.00
2023-05-02T09:51:23.240Z,493.00
2023-05-02T09:52:23.254Z,503.00
2023-05-02T09:53:23.221Z,541.00
2023-05-02T09:54:23.207Z,569.00
2023-05-02T09:55:23.251Z,553.00
2023-05-02T09:56:23.951Z,459.00
2023-05-02T09:57:23.319Z,400.00
2023-05-02T09:58:23.258Z,400.00
2023-05-02T09:59:23.187Z,480.00
2023-05-02T10:00:23.194Z,539.00
2023-05-02T10:01:23.198Z,577.00
2023-05-02T10:02:23.175Z,592.00
2023-05-02T10:03:23.166Z,595.00
2023-05-02T10:04:23.200Z,534.00
2023-05-02T10:05:23.175Z,499.00
2023-05-02T10:06:23.248Z,494.00
2023-05-02T10:07:23.196Z,496.00
2023-05-02T10:08:23.213Z,503.00
2023-05-02T10:09:23.137Z,503.00
2023-05-02T10:10:23.179Z,516.00
2023-05-02T10:11:23.231Z,533.00
2023-05-02T10:12:23.199Z,593.00
2023-05-02T10:13:23.233Z,651.00
2023-05-02T10:14:23.311Z,599.00
2023-05-02T10:15:23.367Z,543.00
2023-05-02T10:16:23.491Z,538.00
2023-05-02T10:17:23.459Z,531.00
2023-05-02T10:18:23.510Z,556.00
2023-05-02T10:19:23.553Z,600.00
2023-05-02T10:20:23.609Z,609.00
2023-05-02T10:21:23.662Z,609.00
2023-05-02T10:22:23.717Z,510.00
2023-05-02T10:23:24.308Z,519.00
2023-05-02T10:24:23.909Z,531.00
2023-05-02T10:25:23.927Z,558.00
2023-05-02T10:26:24.235Z,583.00
2023-05-02T10:27:24.731Z,480.00
2023-05-02T10:28:24.263Z,412.00
2023-05-02T10:29:24.106Z,470.00
2023-05-02T10:30:24.175Z,522.00
2023-05-02T10:31:24.251Z,509.00
2023-05-02T10:32:24.297Z,487.00
2023-05-02T10:33:24.742Z,500.00
2023-05-02T10:34:24.395Z,518.00
2023-05-02T10:35:24.461Z,520.00
2023-05-02T10:36:24.737Z,514.00
2023-05-02T10:37:24.551Z,501.00
2023-05-02T10:38:24.930Z,497.00
2023-05-02T10:39:24.652Z,500.00
2023-05-02T10:40:24.729Z,496.00
2023-05-02T10:41:24.760Z,522.00
2023-05-02T10:42:24.809Z,560.00
2023-05-02T10:43:24.841Z,501.00
2023-05-02T10:44:25.856Z,500.00
2023-05-02T10:45:24.952Z,499.00
2023-05-02T10:46:25.010Z,517.00
2023-05-02T10:47:25.262Z,534.00
2023-05-02T10:48:25.145Z,525.00
2023-05-02T10:49:25.178Z,534.00
2023-05-02T10:50:26.049Z,546.00
2023-05-02T10:51:25.299Z,526.00
2023-05-02T10:52:25.354Z,492.00
2023-05-02T10:53:25.399Z,503.00
2023-05-02T10:54:25.463Z,529.00
2023-05-02T10:55:25.526Z,594.00
2023-05-02T10:56:27.746Z,629.00
2023-05-02T10:57:25.591Z,618.00
2023-05-02T10:58:25.589Z,594.00
2023-05-02T10:59:25.557Z,627.00
2023-05-02T11:00:25.545Z,626.00
2023-05-02T11:01:25.913Z,598.00
2023-05-02T11:02:25.611Z,627.00
2023-05-02T11:03:25.553Z,601.00
2023-05-02T11:04:25.513Z,677.00
2023-05-02T11:05:25.532Z,792.00
2023-05-02T11:06:25.514Z,875.00
2023-05-02T11:07:25.520Z,961.00
2023-05-02T11:08:25.492Z,1364.00
2023-05-02T11:09:25.501Z,2173.00
2023-05-02T11:10:25.482Z,1969.00
2023-05-02T11:11:25.484Z,1926.00
2023-05-02T11:12:25.475Z,1814.00
2023-05-02T11:13:25.484Z,1692.00
2023-05-02T11:14:25.491Z,1577.00
2023-05-02T11:15:25.457Z,1441.00
2023-05-02T11:16:25.857Z,1812.00
2023-05-02T11:17:25.486Z,1682.00
2023-05-02T11:18:25.496Z,1815.00
2023-05-02T11:19:25.448Z,1723.00
2023-05-02T11:20:25.460Z,1531.00
2023-05-02T11:21:25.417Z,1320.00
2023-05-02T11:22:25.472Z,1123.00
2023-05-02T11:23:25.419Z,794.00
2023-05-02T11:24:25.410Z,786.00
2023-05-02T11:25:25.432Z,840.00
2023-05-02T11:26:25.407Z,842.00
2023-05-02T11:27:25.411Z,778.00
2023-05-02T11:28:25.369Z,727.00
2023-05-02T11:29:25.368Z,648.00
2023-05-02T11:30:25.378Z,622.00
2023-05-02T11:31:25.442Z,582.00
2023-05-02T11:32:25.455Z,590.00
2023-05-02T11:33:25.362Z,608.00
2023-05-02T11:34:25.341Z,541.00
2023-05-02T11:35:25.348Z,496.00
2023-05-02T11:36:25.331Z,504.00
2023-05-02T11:37:25.314Z,541.00
2023-05-02T11:38:25.327Z,580.00
2023-05-02T11:39:25.313Z,603.00
2023-05-02T11:40:25.302Z,569.00
2023-05-02T11:41:25.318Z,542.00
2023-05-02T11:42:25.282Z,500.00
2023-05-02T11:43:25.274Z,508.00
2023-05-02T11:44:25.255Z,532.00
2023-05-02T11:45:25.247Z,555.00
2023-05-02T11:46:25.321Z,581.00
2023-05-02T11:47:25.261Z,510.00
2023-05-02T11:48:25.246Z,484.00
2023-05-02T11:49:25.222Z,500.00
2023-05-02T11:50:25.232Z,535.00
2023-05-02T11:51:25.220Z,611.00
2023-05-02T11:52:25.220Z,814.00
2023-05-02T11:53:25.212Z,744.00
2023-05-02T11:54:25.208Z,649.00
2023-05-02T11:55:25.198Z,614.00
2023-05-02T11:56:25.183Z,657.00
2023-05-02T11:57:25.175Z,708.00
2023-05-02T11:58:25.161Z,630.00
2023-05-02T11:59:25.155Z,665.00
2023-05-02T12:00:25.167Z,630.00
2023-05-02T12:01:25.174Z,558.00
2023-05-02T12:02:25.181Z,502.00
2023-05-02T12:03:25.300Z,525.00
2023-05-02T12:04:25.124Z,573.00
2023-05-02T12:05:25.146Z,595.00
2023-05-02T12:06:25.140Z,748.00
2023-05-02T12:07:25.124Z,659.00
2023-05-02T12:08:25.256Z,616.00
2023-05-02T12:09:25.173Z,577.00
2023-05-02T12:10:25.199Z,608.00
2023-05-02T12:11:25.205Z,658.00